sensor_id;sensor_type;location;lat;lon;timestamp;temperature;humidity
59067;DHT22;44854;50.838;4.438;2022-12-18T06:22:17;-4.40;99.90
59067;DHT22;44854;50.838;4.438;2022-12-18T06:24:43;-4.40;99.90
59067;DHT22;44854;50.838;4.438;2022-12-18T06:27:09;-4.30;99.90
59067;DHT22;44854;50.838;4.438;2022-12-18T06:29:34;-4.40;99.90
59067;DHT22;44854;50.838;4.438;2022-12-18T06:32:02;-4.40;99.90
59067;DHT22;44854;50.838;4.438;2022-12-18T06:34:27;-4.50;99.90
59067;DHT22;44854;50.838;4.438;2022-12-18T06:36:53;-4.40;99.90
59067;DHT22;44854;50.838;4.438;2022-12-18T06:39:18;-4.40;99.90
59067;DHT22;44854;50.838;4.438;2022-12-18T06:41:44;-4.30;99.90
59067;DHT22;44854;50.838;4.438;2022-12-18T06:44:10;-4.30;99.90
59067;DHT22;44854;50.838;4.438;2022-12-18T06:46:35;-4.30;99.90
59067;DHT22;44854;50.838;4.438;2022-12-18T06:49:01;-4.20;99.90
59067;DHT22;44854;50.838;4.438;2022-12-18T06:51:26;-4.10;99.90
59067;DHT22;44854;50.838;4.438;2022-12-18T06:53:52;-4.00;99.90
59067;DHT22;44854;50.838;4.438;2022-12-18T06:56:17;-3.80;99.90
59067;DHT22;44854;50.838;4.438;2022-12-18T06:58:43;-3.90;99.90
59067;DHT22;44854;50.838;4.438;2022-12-18T07:01:10;-3.90;99.90
59067;DHT22;44854;50.838;4.438;2022-12-18T07:03:36;-4.00;99.90
59067;DHT22;44854;50.838;4.438;2022-12-18T07:06:02;-4.10;99.90
59067;DHT22;44854;50.838;4.438;2022-12-18T07:08:28;-4.20;99.90
59067;DHT22;44854;50.838;4.438;2022-12-18T07:10:54;-4.20;99.90
59067;DHT22;44854;50.838;4.438;2022-12-18T07:13:19;-4.20;99.90
59067;DHT22;44854;50.838;4.438;2022-12-18T07:15:45;-4.00;99.90
59067;DHT22;44854;50.838;4.438;2022-12-18T07:18:10;-4.00;99.90
59067;DHT22;44854;50.838;4.438;2022-12-18T07:20:36;-4.00;99.90
59067;DHT22;44854;50.838;4.438;2022-12-18T07:23:03;-4.10;99.90
59067;DHT22;44854;50.838;4.438;2022-12-18T07:25:29;-4.10;99.90
59067;DHT22;44854;50.838;4.438;2022-12-18T07:27:54;-4.10;99.90
59067;DHT22;44854;50.838;4.438;2022-12-18T07:30:20;-4.10;99.90
59067;DHT22;44854;50.838;4.438;2022-12-18T07:32:45;-4.10;99.90
59067;DHT22;44854;50.838;4.438;2022-12-18T07:35:11;-4.10;99.90
59067;DHT22;44854;50.838;4.438;2022-12-18T07:37:36;-4.00;99.90
59067;DHT22;44854;50.838;4.438;2022-12-18T07:40:02;-3.90;99.90
59067;DHT22;44854;50.838;4.438;2022-12-18T07:42:27;-3.70;99.90
59067;DHT22;44854;50.838;4.438;2022-12-18T07:44:56;-3.70;99.90
59067;DHT22;44854;50.838;4.438;2022-12-18T07:47:22;-3.60;99.90
59067;DHT22;44854;50.838;4.438;2022-12-18T07:49:47;-3.60;99.90
59067;DHT22;44854;50.838;4.438;2022-12-18T07:52:13;-3.60;99.90
59067;DHT22;44854;50.838;4.438;2022-12-18T07:54:38;-3.60;99.90
59067;DHT22;44854;50.838;4.438;2022-12-18T07:57:05;-3.50;99.90
59067;DHT22;44854;50.838;4.438;2022-12-18T07:59:31;-3.40;99.90
59067;DHT22;44854;50.838;4.438;2022-12-18T08:01:56;-3.40;99.90
59067;DHT22;44854;50.838;4.438;2022-12-18T08:04:22;-3.30;99.90
59067;DHT22;44854;50.838;4.438;2022-12-18T08:06:48;-3.30;99.90
59067;DHT22;44854;50.838;4.438;2022-12-18T08:09:13;-3.30;99.90
59067;DHT22;44854;50.838;4.438;2022-12-18T08:11:39;-3.20;99.90
59067;DHT22;44854;50.838;4.438;2022-12-18T08:14:04;-3.20;99.90
59067;DHT22;44854;50.838;4.438;2022-12-18T08:16:30;-3.20;99.90
59067;DHT22;44854;50.838;4.438;2022-12-18T08:18:56;-3.10;99.90
59067;DHT22;44854;50.838;4.438;2022-12-18T08:21:23;-3.10;99.90
59067;DHT22;44854;50.838;4.438;2022-12-18T08:23:49;-2.90;99.90
59067;DHT22;44854;50.838;4.438;2022-12-18T08:26:15;-2.80;99.90
59067;DHT22;44854;50.838;4.438;2022-12-18T08:28:41;-2.70;99.90
59067;DHT22;44854;50.838;4.438;2022-12-18T08:31:07;-2.50;99.90
59067;DHT22;44854;50.838;4.438;2022-12-18T08:33:33;-2.40;99.90
59067;DHT22;44854;50.838;4.438;2022-12-18T08:35:59;-2.30;99.90
59067;DHT22;44854;50.838;4.438;2022-12-18T08:38:24;-2.10;99.90
59067;DHT22;44854;50.838;4.438;2022-12-18T08:40:57;-2.00;99.90
59067;DHT22;44854;50.838;4.438;2022-12-18T08:43:23;-1.90;99.90
59067;DHT22;44854;50.838;4.438;2022-12-18T08:46:07;-1.80;99.90
59067;DHT22;44854;50.838;4.438;2022-12-18T08:48:32;-1.60;99.90
59067;DHT22;44854;50.838;4.438;2022-12-18T08:50:58;-1.50;99.90
59067;DHT22;44854;50.838;4.438;2022-12-18T08:53:24;-1.50;99.90
59067;DHT22;44854;50.838;4.438;2022-12-18T08:55:50;-1.40;99.90
59067;DHT22;44854;50.838;4.438;2022-12-18T08:58:15;-1.40;99.90
59067;DHT22;44854;50.838;4.438;2022-12-18T09:00:41;-1.30;99.90
59067;DHT22;44854;50.838;4.438;2022-12-18T09:03:16;-1.20;99.90
59067;DHT22;44854;50.838;4.438;2022-12-18T09:05:42;-1.00;99.90
59067;DHT22;44854;50.838;4.438;2022-12-18T09:08:08;-0.90;99.90
59067;DHT22;44854;50.838;4.438;2022-12-18T09:10:40;-0.90;99.90
59067;DHT22;44854;50.838;4.438;2022-12-18T09:13:06;-0.80;99.90
59067;DHT22;44854;50.838;4.438;2022-12-18T09:15:31;-0.50;99.90
59067;DHT22;44854;50.838;4.438;2022-12-18T09:17:57;-0.40;99.90
59067;DHT22;44854;50.838;4.438;2022-12-18T09:20:23;-0.20;99.90
59067;DHT22;44854;50.838;4.438;2022-12-18T09:22:48;-0.10;99.90
59067;DHT22;44854;50.838;4.438;2022-12-18T09:25:13;-0.20;99.90
59067;DHT22;44854;50.838;4.438;2022-12-18T09:27:39;0.10;99.90
59067;DHT22;44854;50.838;4.438;2022-12-18T09:30:05;0.00;99.90
59067;DHT22;44854;50.838;4.438;2022-12-18T09:32:30;-0.10;99.90
59067;DHT22;44854;50.838;4.438;2022-12-18T09:34:56;0.20;99.90
59067;DHT22;44854;50.838;4.438;2022-12-18T09:37:21;0.10;99.90
59067;DHT22;44854;50.838;4.438;2022-12-18T09:39:47;0.10;99.90
59067;DHT22;44854;50.838;4.438;2022-12-18T09:42:16;0.00;99.90
59067;DHT22;44854;50.838;4.438;2022-12-18T09:44:43;0.20;99.90
59067;DHT22;44854;50.838;4.438;2022-12-18T09:47:24;0.10;99.90
59067;DHT22;44854;50.838;4.438;2022-12-18T09:49:51;0.10;99.90
59067;DHT22;44854;50.838;4.438;2022-12-18T09:52:23;0.10;99.90
59067;DHT22;44854;50.838;4.438;2022-12-18T09:54:53;0.10;99.90
59067;DHT22;44854;50.838;4.438;2022-12-18T09:57:21;0.20;99.90
59067;DHT22;44854;50.838;4.438;2022-12-18T09:59:58;0.40;99.90
59067;DHT22;44854;50.838;4.438;2022-12-18T10:02:26;0.40;99.90
59067;DHT22;44854;50.838;4.438;2022-12-18T10:07:42;0.40;99.90
59067;DHT22;44854;50.838;4.438;2022-12-18T10:13:01;0.60;99.90
59067;DHT22;44854;50.838;4.438;2022-12-18T10:17:58;0.50;99.90
59067;DHT22;44854;50.838;4.438;2022-12-18T10:20:42;0.70;99.90
59067;DHT22;44854;50.838;4.438;2022-12-18T10:26:13;0.90;99.90
59067;DHT22;44854;50.838;4.438;2022-12-18T10:28:39;1.10;99.90
59067;DHT22;44854;50.838;4.438;2022-12-18T10:31:05;1.00;99.90
59067;DHT22;44854;50.838;4.438;2022-12-18T10:33:32;1.10;99.90
59067;DHT22;44854;50.838;4.438;2022-12-18T10:35:58;1.10;99.90
59067;DHT22;44854;50.838;4.438;2022-12-18T10:38:25;1.20;99.90
59067;DHT22;44854;50.838;4.438;2022-12-18T10:40:52;1.30;99.90
59067;DHT22;44854;50.838;4.438;2022-12-18T10:46:00;1.50;99.90
59067;DHT22;44854;50.838;4.438;2022-12-18T10:48:26;1.60;99.90
59067;DHT22;44854;50.838;4.438;2022-12-18T10:50:52;1.70;99.90
59067;DHT22;44854;50.838;4.438;2022-12-18T10:53:25;1.70;99.90
59067;DHT22;44854;50.838;4.438;2022-12-18T10:55:52;1.60;99.90
59067;DHT22;44854;50.838;4.438;2022-12-18T11:00:44;1.20;99.90
59067;DHT22;44854;50.838;4.438;2022-12-18T11:06:03;1.30;99.90
59067;DHT22;44854;50.838;4.438;2022-12-18T11:08:29;1.40;99.90
59067;DHT22;44854;50.838;4.438;2022-12-18T11:10:55;1.40;99.90
59067;DHT22;44854;50.838;4.438;2022-12-18T11:13:21;1.50;99.90
59067;DHT22;44854;50.838;4.438;2022-12-18T11:15:50;1.30;99.90
59067;DHT22;44854;50.838;4.438;2022-12-18T11:20:52;1.30;99.90
59067;DHT22;44854;50.838;4.438;2022-12-18T11:23:18;1.40;99.90
59067;DHT22;44854;50.838;4.438;2022-12-18T11:26:19;1.50;99.90
59067;DHT22;44854;50.838;4.438;2022-12-18T11:28:39;1.70;99.90
59067;DHT22;44854;50.838;4.438;2022-12-18T11:33:38;1.80;99.90
59067;DHT22;44854;50.838;4.438;2022-12-18T11:36:05;1.90;99.90
59067;DHT22;44854;50.838;4.438;2022-12-18T11:38:37;2.00;99.90
59067;DHT22;44854;50.838;4.438;2022-12-18T11:43:48;2.00;99.90
59067;DHT22;44854;50.838;4.438;2022-12-18T11:46:26;2.10;99.90
59067;DHT22;44854;50.838;4.438;2022-12-18T11:48:57;2.20;99.90
59067;DHT22;44854;50.838;4.438;2022-12-18T11:51:29;2.10;99.90
59067;DHT22;44854;50.838;4.438;2022-12-18T11:53:57;2.20;99.90
59067;DHT22;44854;50.838;4.438;2022-12-18T11:58:52;2.30;99.90
59067;DHT22;44854;50.838;4.438;2022-12-18T12:06:23;2.30;99.90
59067;DHT22;44854;50.838;4.438;2022-12-18T12:09:04;2.30;99.90
59067;DHT22;44854;50.838;4.438;2022-12-18T12:22:15;2.50;99.90
59067;DHT22;44854;50.838;4.438;2022-12-18T12:24:46;2.50;99.90
59067;DHT22;44854;50.838;4.438;2022-12-18T12:32:26;2.70;99.90
59067;DHT22;44854;50.838;4.438;2022-12-18T12:37:43;2.60;99.90
59067;DHT22;44854;50.838;4.438;2022-12-18T12:40:12;2.60;99.90
59067;DHT22;44854;50.838;4.438;2022-12-18T12:42:44;2.70;99.90
59067;DHT22;44854;50.838;4.438;2022-12-18T12:48:20;2.70;99.90
59067;DHT22;44854;50.838;4.438;2022-12-18T12:50:48;2.80;99.90
59067;DHT22;44854;50.838;4.438;2022-12-18T12:53:18;2.70;99.90
59067;DHT22;44854;50.838;4.438;2022-12-18T12:55:45;2.70;99.90
59067;DHT22;44854;50.838;4.438;2022-12-18T12:58:19;2.70;99.90
59067;DHT22;44854;50.838;4.438;2022-12-18T13:01:04;2.80;99.90
59067;DHT22;44854;50.838;4.438;2022-12-18T13:06:02;2.70;99.90
59067;DHT22;44854;50.838;4.438;2022-12-18T13:08:31;2.70;99.90
59067;DHT22;44854;50.838;4.438;2022-12-18T13:10:58;2.80;99.90
59067;DHT22;44854;50.838;4.438;2022-12-18T13:13:49;2.90;99.90
59067;DHT22;44854;50.838;4.438;2022-12-18T13:16:18;2.80;99.90
59067;DHT22;44854;50.838;4.438;2022-12-18T13:18:57;2.80;99.90
59067;DHT22;44854;50.838;4.438;2022-12-18T13:21:31;2.80;99.90
59067;DHT22;44854;50.838;4.438;2022-12-18T13:24:20;2.80;99.90
59067;DHT22;44854;50.838;4.438;2022-12-18T13:26:48;2.90;99.90
59067;DHT22;44854;50.838;4.438;2022-12-18T13:29:15;3.10;99.90
59067;DHT22;44854;50.838;4.438;2022-12-18T13:31:59;3.00;99.90
59067;DHT22;44854;50.838;4.438;2022-12-18T13:34:26;3.00;99.90
59067;DHT22;44854;50.838;4.438;2022-12-18T13:36:55;3.00;99.90
59067;DHT22;44854;50.838;4.438;2022-12-18T13:42:31;2.90;99.90
59067;DHT22;44854;50.838;4.438;2022-12-18T13:44:59;3.00;99.90
59067;DHT22;44854;50.838;4.438;2022-12-18T13:47:27;3.10;99.90
59067;DHT22;44854;50.838;4.438;2022-12-18T13:49:56;3.10;99.90
59067;DHT22;44854;50.838;4.438;2022-12-18T13:52:22;3.00;99.90
59067;DHT22;44854;50.838;4.438;2022-12-18T13:54:53;3.00;99.90
59067;DHT22;44854;50.838;4.438;2022-12-18T13:57:29;3.00;99.90
59067;DHT22;44854;50.838;4.438;2022-12-18T13:59:55;3.10;99.90
59067;DHT22;44854;50.838;4.438;2022-12-18T14:02:22;2.90;99.90
59067;DHT22;44854;50.838;4.438;2022-12-18T14:04:51;3.00;99.90
59067;DHT22;44854;50.838;4.438;2022-12-18T14:09:47;2.90;99.90
59067;DHT22;44854;50.838;4.438;2022-12-18T14:12:33;3.00;99.90
59067;DHT22;44854;50.838;4.438;2022-12-18T14:15:35;3.10;99.90
59067;DHT22;44854;50.838;4.438;2022-12-18T14:20:35;3.00;99.90
59067;DHT22;44854;50.838;4.438;2022-12-18T14:23:01;2.90;99.90
59067;DHT22;44854;50.838;4.438;2022-12-18T14:25:30;2.80;99.90
59067;DHT22;44854;50.838;4.438;2022-12-18T14:28:04;2.80;99.90
59067;DHT22;44854;50.838;4.438;2022-12-18T14:30:37;2.80;99.90
59067;DHT22;44854;50.838;4.438;2022-12-18T14:33:04;2.80;99.90
59067;DHT22;44854;50.838;4.438;2022-12-18T14:35:31;2.80;99.90
59067;DHT22;44854;50.838;4.438;2022-12-18T14:38:11;2.80;99.90
59067;DHT22;44854;50.838;4.438;2022-12-18T14:40:42;2.70;99.90
59067;DHT22;44854;50.838;4.438;2022-12-18T14:43:09;2.70;99.90
59067;DHT22;44854;50.838;4.438;2022-12-18T14:48:05;2.90;99.90
59067;DHT22;44854;50.838;4.438;2022-12-18T14:50:31;2.90;99.90
59067;DHT22;44854;50.838;4.438;2022-12-18T14:52:57;2.90;99.90
59067;DHT22;44854;50.838;4.438;2022-12-18T14:55:22;2.90;99.90
59067;DHT22;44854;50.838;4.438;2022-12-18T14:57:56;2.90;99.90
59067;DHT22;44854;50.838;4.438;2022-12-18T15:00:23;2.90;99.90
59067;DHT22;44854;50.838;4.438;2022-12-18T15:02:53;2.90;99.90
59067;DHT22;44854;50.838;4.438;2022-12-18T15:05:20;3.00;99.90
59067;DHT22;44854;50.838;4.438;2022-12-18T15:07:47;2.90;99.90
59067;DHT22;44854;50.838;4.438;2022-12-18T15:10:22;2.90;99.90
59067;DHT22;44854;50.838;4.438;2022-12-18T15:23:17;2.90;99.90
59067;DHT22;44854;50.838;4.438;2022-12-18T15:25:43;2.80;99.90
59067;DHT22;44854;50.838;4.438;2022-12-18T15:28:17;2.80;99.90
59067;DHT22;44854;50.838;4.438;2022-12-18T15:30:59;2.80;99.90
59067;DHT22;44854;50.838;4.438;2022-12-18T15:33:26;2.80;99.90
59067;DHT22;44854;50.838;4.438;2022-12-18T15:36:02;2.80;99.90
59067;DHT22;44854;50.838;4.438;2022-12-18T15:38:27;3.00;99.90
59067;DHT22;44854;50.838;4.438;2022-12-18T15:40:53;2.90;99.90
59067;DHT22;44854;50.838;4.438;2022-12-18T15:43:22;2.90;99.90
59067;DHT22;44854;50.838;4.438;2022-12-18T15:48:58;2.90;99.90
59067;DHT22;44854;50.838;4.438;2022-12-18T15:51:24;2.90;99.90
59067;DHT22;44854;50.838;4.438;2022-12-18T15:53:58;2.90;99.90
59067;DHT22;44854;50.838;4.438;2022-12-18T15:56:27;2.80;99.90
59067;DHT22;44854;50.838;4.438;2022-12-18T15:59:13;2.80;99.90
59067;DHT22;44854;50.838;4.438;2022-12-18T16:01:39;2.80;99.90
59067;DHT22;44854;50.838;4.438;2022-12-18T16:04:05;2.70;99.90
59067;DHT22;44854;50.838;4.438;2022-12-18T16:06:30;2.70;99.90
59067;DHT22;44854;50.838;4.438;2022-12-18T16:08:56;2.80;99.90
59067;DHT22;44854;50.838;4.438;2022-12-18T16:11:26;2.80;99.90
59067;DHT22;44854;50.838;4.438;2022-12-18T16:16:30;2.70;99.90
59067;DHT22;44854;50.838;4.438;2022-12-18T16:18:56;2.70;99.90
59067;DHT22;44854;50.838;4.438;2022-12-18T16:21:21;2.70;99.90
59067;DHT22;44854;50.838;4.438;2022-12-18T16:23:47;2.70;99.90
59067;DHT22;44854;50.838;4.438;2022-12-18T16:26:12;2.70;99.90
59067;DHT22;44854;50.838;4.438;2022-12-18T16:28:38;2.80;99.90
59067;DHT22;44854;50.838;4.438;2022-12-18T16:31:04;2.90;99.90
59067;DHT22;44854;50.838;4.438;2022-12-18T16:33:30;2.80;99.90
59067;DHT22;44854;50.838;4.438;2022-12-18T16:35:55;2.80;99.90
59067;DHT22;44854;50.838;4.438;2022-12-18T16:38:21;2.90;99.90
59067;DHT22;44854;50.838;4.438;2022-12-18T16:40:46;2.80;99.90
59067;DHT22;44854;50.838;4.438;2022-12-18T16:43:30;3.00;99.90
59067;DHT22;44854;50.838;4.438;2022-12-18T16:45:58;3.00;99.90
59067;DHT22;44854;50.838;4.438;2022-12-18T16:48:23;2.90;99.90
59067;DHT22;44854;50.838;4.438;2022-12-18T16:50:49;3.00;99.90
59067;DHT22;44854;50.838;4.438;2022-12-18T16:53:15;3.00;99.90
59067;DHT22;44854;50.838;4.438;2022-12-18T16:55:40;3.00;99.90
59067;DHT22;44854;50.838;4.438;2022-12-18T16:58:06;3.00;99.90
59067;DHT22;44854;50.838;4.438;2022-12-18T17:00:33;3.10;99.90
59067;DHT22;44854;50.838;4.438;2022-12-18T17:02:58;3.00;99.90
59067;DHT22;44854;50.838;4.438;2022-12-18T17:05:24;3.10;99.90
59067;DHT22;44854;50.838;4.438;2022-12-18T17:07:49;3.10;99.90
59067;DHT22;44854;50.838;4.438;2022-12-18T17:10:15;3.10;99.90
59067;DHT22;44854;50.838;4.438;2022-12-18T17:12:41;3.00;99.90
59067;DHT22;44854;50.838;4.438;2022-12-18T17:15:07;3.00;99.90
59067;DHT22;44854;50.838;4.438;2022-12-18T17:17:33;3.00;99.90
59067;DHT22;44854;50.838;4.438;2022-12-18T17:20:00;2.90;99.90
59067;DHT22;44854;50.838;4.438;2022-12-18T17:22:26;2.90;99.90
59067;DHT22;44854;50.838;4.438;2022-12-18T17:24:53;3.10;99.90
59067;DHT22;44854;50.838;4.438;2022-12-18T17:27:19;3.10;99.90
59067;DHT22;44854;50.838;4.438;2022-12-18T17:29:44;3.10;99.90
59067;DHT22;44854;50.838;4.438;2022-12-18T17:32:10;3.10;99.90
59067;DHT22;44854;50.838;4.438;2022-12-18T17:34:35;3.10;99.90
59067;DHT22;44854;50.838;4.438;2022-12-18T17:37:01;3.10;99.90
59067;DHT22;44854;50.838;4.438;2022-12-18T17:39:27;3.00;99.90
59067;DHT22;44854;50.838;4.438;2022-12-18T17:41:54;3.00;99.90
59067;DHT22;44854;50.838;4.438;2022-12-18T17:44:21;3.00;99.90
59067;DHT22;44854;50.838;4.438;2022-12-18T17:46:46;3.00;99.90
59067;DHT22;44854;50.838;4.438;2022-12-18T17:49:14;3.00;99.90
59067;DHT22;44854;50.838;4.438;2022-12-18T17:51:40;3.10;99.90
59067;DHT22;44854;50.838;4.438;2022-12-18T17:54:07;3.10;99.90
59067;DHT22;44854;50.838;4.438;2022-12-18T17:56:33;3.00;99.90
59067;DHT22;44854;50.838;4.438;2022-12-18T17:58:58;3.00;99.90
59067;DHT22;44854;50.838;4.438;2022-12-18T18:01:25;3.10;99.90
59067;DHT22;44854;50.838;4.438;2022-12-18T18:03:51;3.10;99.90
59067;DHT22;44854;50.838;4.438;2022-12-18T18:06:19;3.10;99.90
59067;DHT22;44854;50.838;4.438;2022-12-18T18:08:44;2.90;99.90
59067;DHT22;44854;50.838;4.438;2022-12-18T18:11:11;2.90;99.90
59067;DHT22;44854;50.838;4.438;2022-12-18T18:13:56;3.00;99.90
59067;DHT22;44854;50.838;4.438;2022-12-18T18:16:29;2.90;99.90
59067;DHT22;44854;50.838;4.438;2022-12-18T18:18:56;2.90;99.90
59067;DHT22;44854;50.838;4.438;2022-12-18T18:21:21;2.80;99.90
59067;DHT22;44854;50.838;4.438;2022-12-18T18:23:48;2.80;99.90
59067;DHT22;44854;50.838;4.438;2022-12-18T18:26:14;2.80;99.90
59067;DHT22;44854;50.838;4.438;2022-12-18T18:28:39;2.80;99.90
59067;DHT22;44854;50.838;4.438;2022-12-18T18:31:06;2.90;99.90
59067;DHT22;44854;50.838;4.438;2022-12-18T18:33:32;3.00;99.90
59067;DHT22;44854;50.838;4.438;2022-12-18T18:35:57;2.90;99.90
59067;DHT22;44854;50.838;4.438;2022-12-18T18:38:23;2.90;99.90
59067;DHT22;44854;50.838;4.438;2022-12-18T18:40:56;2.90;99.90
59067;DHT22;44854;50.838;4.438;2022-12-18T18:43:22;3.00;99.90
59067;DHT22;44854;50.838;4.438;2022-12-18T18:45:47;2.90;99.90
59067;DHT22;44854;50.838;4.438;2022-12-18T18:48:13;3.00;99.90
59067;DHT22;44854;50.838;4.438;2022-12-18T18:50:38;3.10;99.90
59067;DHT22;44854;50.838;4.438;2022-12-18T18:53:04;3.10;99.90
59067;DHT22;44854;50.838;4.438;2022-12-18T18:55:31;3.10;99.90
59067;DHT22;44854;50.838;4.438;2022-12-18T18:57:57;3.20;99.90
59067;DHT22;44854;50.838;4.438;2022-12-18T19:00:23;3.10;99.90
59067;DHT22;44854;50.838;4.438;2022-12-18T19:02:48;2.80;99.90
59067;DHT22;44854;50.838;4.438;2022-12-18T19:05:14;2.80;99.90
59067;DHT22;44854;50.838;4.438;2022-12-18T19:07:40;2.80;99.90
59067;DHT22;44854;50.838;4.438;2022-12-18T19:10:05;3.00;99.90
59067;DHT22;44854;50.838;4.438;2022-12-18T19:12:32;3.40;99.90
59067;DHT22;44854;50.838;4.438;2022-12-18T19:15:16;3.30;99.90
59067;DHT22;44854;50.838;4.438;2022-12-18T19:17:42;3.20;99.90
59067;DHT22;44854;50.838;4.438;2022-12-18T19:20:07;3.30;99.90
59067;DHT22;44854;50.838;4.438;2022-12-18T19:22:33;3.40;99.90
59067;DHT22;44854;50.838;4.438;2022-12-18T19:24:58;3.30;99.90
59067;DHT22;44854;50.838;4.438;2022-12-18T19:27:24;3.20;99.90
59067;DHT22;44854;50.838;4.438;2022-12-18T19:29:49;3.20;99.90
59067;DHT22;44854;50.838;4.438;2022-12-18T19:32:15;3.30;99.90
59067;DHT22;44854;50.838;4.438;2022-12-18T19:34:41;3.50;99.90
59067;DHT22;44854;50.838;4.438;2022-12-18T19:37:06;3.60;99.90
59067;DHT22;44854;50.838;4.438;2022-12-18T19:39:32;3.60;99.90
59067;DHT22;44854;50.838;4.438;2022-12-18T19:41:57;3.50;99.90
59067;DHT22;44854;50.838;4.438;2022-12-18T19:44:23;3.50;99.90
59067;DHT22;44854;50.838;4.438;2022-12-18T19:46:49;3.70;99.90
59067;DHT22;44854;50.838;4.438;2022-12-18T19:49:15;3.70;99.90
59067;DHT22;44854;50.838;4.438;2022-12-18T19:51:41;3.60;99.90
59067;DHT22;44854;50.838;4.438;2022-12-18T19:54:06;3.50;99.90
59067;DHT22;44854;50.838;4.438;2022-12-18T19:56:33;3.50;99.90
59067;DHT22;44854;50.838;4.438;2022-12-18T19:58:59;3.60;99.90
59067;DHT22;44854;50.838;4.438;2022-12-18T20:01:25;3.50;99.90
59067;DHT22;44854;50.838;4.438;2022-12-18T20:03:51;3.40;99.90
59067;DHT22;44854;50.838;4.438;2022-12-18T20:06:28;3.30;99.90
59067;DHT22;44854;50.838;4.438;2022-12-18T20:08:55;3.20;99.90
59067;DHT22;44854;50.838;4.438;2022-12-18T20:11:20;3.20;99.90
59067;DHT22;44854;50.838;4.438;2022-12-18T20:13:46;3.20;99.90
59067;DHT22;44854;50.838;4.438;2022-12-18T20:16:12;3.30;99.90
59067;DHT22;44854;50.838;4.438;2022-12-18T20:18:37;3.30;99.90
59067;DHT22;44854;50.838;4.438;2022-12-18T20:21:04;3.30;99.90
59067;DHT22;44854;50.838;4.438;2022-12-18T20:23:29;3.30;99.90
59067;DHT22;44854;50.838;4.438;2022-12-18T20:25:55;3.30;99.90
59067;DHT22;44854;50.838;4.438;2022-12-18T20:28:21;3.40;99.90
59067;DHT22;44854;50.838;4.438;2022-12-18T20:30:47;3.50;99.90
59067;DHT22;44854;50.838;4.438;2022-12-18T20:33:13;3.40;99.90
59067;DHT22;44854;50.838;4.438;2022-12-18T20:35:38;3.30;99.90
59067;DHT22;44854;50.838;4.438;2022-12-18T20:38:04;3.50;99.90
59067;DHT22;44854;50.838;4.438;2022-12-18T20:40:30;3.60;99.90
59067;DHT22;44854;50.838;4.438;2022-12-18T20:42:55;3.70;99.90
59067;DHT22;44854;50.838;4.438;2022-12-18T20:45:21;3.40;99.90
59067;DHT22;44854;50.838;4.438;2022-12-18T20:47:46;3.40;99.90
59067;DHT22;44854;50.838;4.438;2022-12-18T20:50:12;3.40;99.90
59067;DHT22;44854;50.838;4.438;2022-12-18T20:52:37;3.40;99.90
59067;DHT22;44854;50.838;4.438;2022-12-18T20:55:04;3.40;99.90
59067;DHT22;44854;50.838;4.438;2022-12-18T20:57:29;3.40;99.90
59067;DHT22;44854;50.838;4.438;2022-12-18T20:59:55;3.50;99.90
59067;DHT22;44854;50.838;4.438;2022-12-18T21:02:20;3.50;99.90
59067;DHT22;44854;50.838;4.438;2022-12-18T21:04:46;3.70;99.90
59067;DHT22;44854;50.838;4.438;2022-12-18T21:07:11;3.70;99.90
59067;DHT22;44854;50.838;4.438;2022-12-18T21:09:37;3.80;99.90
59067;DHT22;44854;50.838;4.438;2022-12-18T21:12:03;3.70;99.90
59067;DHT22;44854;50.838;4.438;2022-12-18T21:14:47;3.60;99.90
59067;DHT22;44854;50.838;4.438;2022-12-18T21:17:12;3.60;99.90
59067;DHT22;44854;50.838;4.438;2022-12-18T21:19:39;3.70;99.90
59067;DHT22;44854;50.838;4.438;2022-12-18T21:22:04;3.70;99.90
59067;DHT22;44854;50.838;4.438;2022-12-18T21:24:30;3.70;99.90
59067;DHT22;44854;50.838;4.438;2022-12-18T21:26:55;3.70;99.90
59067;DHT22;44854;50.838;4.438;2022-12-18T21:29:22;3.70;99.90
59067;DHT22;44854;50.838;4.438;2022-12-18T21:31:48;3.70;99.90
59067;DHT22;44854;50.838;4.438;2022-12-18T21:34:16;3.70;99.90
59067;DHT22;44854;50.838;4.438;2022-12-18T21:36:42;3.60;99.90
59067;DHT22;44854;50.838;4.438;2022-12-18T21:39:07;3.70;99.90
59067;DHT22;44854;50.838;4.438;2022-12-18T21:41:33;3.70;99.90
59067;DHT22;44854;50.838;4.438;2022-12-18T21:44:17;3.80;99.90
59067;DHT22;44854;50.838;4.438;2022-12-18T21:46:44;3.90;99.90
59067;DHT22;44854;50.838;4.438;2022-12-18T21:49:10;3.80;99.90
59067;DHT22;44854;50.838;4.438;2022-12-18T21:51:38;3.80;99.90
59067;DHT22;44854;50.838;4.438;2022-12-18T21:54:04;3.80;99.90
59067;DHT22;44854;50.838;4.438;2022-12-18T21:59:07;3.80;99.90
59067;DHT22;44854;50.838;4.438;2022-12-18T22:01:32;3.80;99.90
59067;DHT22;44854;50.838;4.438;2022-12-18T22:03:58;3.80;99.90
59067;DHT22;44854;50.838;4.438;2022-12-18T22:06:24;3.80;99.90
59067;DHT22;44854;50.838;4.438;2022-12-18T22:08:49;3.90;99.90
59067;DHT22;44854;50.838;4.438;2022-12-18T22:11:15;3.80;99.90
59067;DHT22;44854;50.838;4.438;2022-12-18T22:13:40;3.80;99.90
59067;DHT22;44854;50.838;4.438;2022-12-18T22:16:06;3.80;99.90
59067;DHT22;44854;50.838;4.438;2022-12-18T22:18:31;3.90;99.90
59067;DHT22;44854;50.838;4.438;2022-12-18T22:21:01;4.00;99.90
59067;DHT22;44854;50.838;4.438;2022-12-18T22:23:27;4.00;99.90
59067;DHT22;44854;50.838;4.438;2022-12-18T22:25:52;4.00;99.90
59067;DHT22;44854;50.838;4.438;2022-12-18T22:28:18;4.10;99.90
59067;DHT22;44854;50.838;4.438;2022-12-18T22:31:02;4.10;99.90
59067;DHT22;44854;50.838;4.438;2022-12-18T22:33:27;4.20;99.90
59067;DHT22;44854;50.838;4.438;2022-12-18T22:35:53;4.20;99.90
59067;DHT22;44854;50.838;4.438;2022-12-18T22:38:18;4.30;99.90
59067;DHT22;44854;50.838;4.438;2022-12-18T22:40:44;4.40;99.90
59067;DHT22;44854;50.838;4.438;2022-12-18T22:43:09;4.20;99.90
59067;DHT22;44854;50.838;4.438;2022-12-18T22:45:35;4.20;99.90
59067;DHT22;44854;50.838;4.438;2022-12-18T22:48:00;4.20;99.90
59067;DHT22;44854;50.838;4.438;2022-12-18T22:50:26;4.20;99.90
59067;DHT22;44854;50.838;4.438;2022-12-18T22:52:52;4.40;99.90
59067;DHT22;44854;50.838;4.438;2022-12-18T22:55:17;4.30;99.90
59067;DHT22;44854;50.838;4.438;2022-12-18T22:57:43;4.30;99.90
59067;DHT22;44854;50.838;4.438;2022-12-18T23:00:08;4.40;99.90
59067;DHT22;44854;50.838;4.438;2022-12-18T23:02:34;4.20;99.90
59067;DHT22;44854;50.838;4.438;2022-12-18T23:05:00;4.20;99.90
59067;DHT22;44854;50.838;4.438;2022-12-18T23:07:25;4.30;99.90
59067;DHT22;44854;50.838;4.438;2022-12-18T23:09:51;4.30;99.90
59067;DHT22;44854;50.838;4.438;2022-12-18T23:12:16;4.40;99.90
59067;DHT22;44854;50.838;4.438;2022-12-18T23:14:42;4.50;99.90
59067;DHT22;44854;50.838;4.438;2022-12-18T23:17:08;4.50;99.90
59067;DHT22;44854;50.838;4.438;2022-12-18T23:19:33;4.50;99.90
